sensor_id;sensor_type;location;lat;lon;timestamp;pressure;altitude;pressure_sealevel;temperature;humidity
63654;BME280;49809;47.418;19.080;2023-05-21T00:08:18;100623.25;;;15.84;87.03
63654;BME280;49809;47.418;19.080;2023-05-21T00:11:44;100633.41;;;15.82;87.41
63654;BME280;49809;47.418;19.080;2023-05-21T00:15:24;100630.37;;;15.94;86.19
63654;BME280;49809;47.418;19.080;2023-05-21T00:19:03;100632.28;;;15.88;86.40
63654;BME280;49809;47.418;19.080;2023-05-21T00:22:28;100636.53;;;15.94;85.90
63654;BME280;49809;47.418;19.080;2023-05-21T00:26:14;100638.38;;;15.94;85.75
63654;BME280;49809;47.418;19.080;2023-05-21T00:33:17;100641.41;;;15.87;86.11
63654;BME280;49809;47.418;19.080;2023-05-21T00:36:35;100640.91;;;15.80;86.55
63654;BME280;49809;47.418;19.080;2023-05-21T00:40:10;100641.75;;;15.71;87.29
63654;BME280;49809;47.418;19.080;2023-05-21T00:43:48;100634.84;;;15.64;88.24
63654;BME280;49809;47.418;19.080;2023-05-21T00:54:29;100635.19;;;15.48;89.07
63654;BME280;49809;47.418;19.080;2023-05-21T01:09:01;100616.94;;;15.11;91.62
63654;BME280;49809;47.418;19.080;2023-05-21T01:12:32;100614.59;;;15.04;92.51
63654;BME280;49809;47.418;19.080;2023-05-21T01:16:06;100616.75;;;14.97;92.52
63654;BME280;49809;47.418;19.080;2023-05-21T01:23:27;100627.16;;;14.94;93.31
63654;BME280;49809;47.418;19.080;2023-05-21T01:26:52;100612.50;;;14.91;93.39
63654;BME280;49809;47.418;19.080;2023-05-21T01:30:11;100619.44;;;14.92;93.63
63654;BME280;49809;47.418;19.080;2023-05-21T01:37:20;100622.69;;;14.74;94.46
63654;BME280;49809;47.418;19.080;2023-05-21T01:40:52;100622.69;;;14.69;94.71
63654;BME280;49809;47.418;19.080;2023-05-21T01:44:22;100622.69;;;14.64;95.06
63654;BME280;49809;47.418;19.080;2023-05-21T01:48:00;100619.22;;;14.68;94.51
63654;BME280;49809;47.418;19.080;2023-05-21T01:51:29;100617.63;;;14.67;94.19
63654;BME280;49809;47.418;19.080;2023-05-21T01:55:10;100620.84;;;14.69;94.14
63654;BME280;49809;47.418;19.080;2023-05-21T01:58:45;100622.19;;;14.57;94.50
63654;BME280;49809;47.418;19.080;2023-05-21T02:02:19;100616.87;;;14.57;94.57
63654;BME280;49809;47.418;19.080;2023-05-21T02:05:54;100619.00;;;14.60;94.05
63654;BME280;49809;47.418;19.080;2023-05-21T02:09:15;100619.53;;;14.52;94.49
63654;BME280;49809;47.418;19.080;2023-05-21T02:12:57;100616.06;;;14.51;94.51
63654;BME280;49809;47.418;19.080;2023-05-21T02:16:16;100611.56;;;14.42;94.66
63654;BME280;49809;47.418;19.080;2023-05-21T02:23:43;100609.16;;;14.40;95.37
63654;BME280;49809;47.418;19.080;2023-05-21T02:27:16;100601.72;;;14.37;95.27
63654;BME280;49809;47.418;19.080;2023-05-21T02:30:53;100611.53;;;14.31;95.83
63654;BME280;49809;47.418;19.080;2023-05-21T02:48:51;100611.00;;;14.24;95.63
63654;BME280;49809;47.418;19.080;2023-05-21T02:55:56;100609.94;;;14.10;96.64
63654;BME280;49809;47.418;19.080;2023-05-21T02:59:31;100616.87;;;14.06;97.09
63654;BME280;49809;47.418;19.080;2023-05-21T03:29:34;100596.37;;;14.27;93.93
63654;BME280;49809;47.418;19.080;2023-05-21T03:33:16;100590.50;;;14.30;94.27
63654;BME280;49809;47.418;19.080;2023-05-21T04:18:16;100636.59;;;15.84;86.61
63654;BME280;49809;47.418;19.080;2023-05-21T04:29:32;100630.50;;;16.41;82.34
63654;BME280;49809;47.418;19.080;2023-05-21T04:55:41;100609.97;;;17.37;74.90
63654;BME280;49809;47.418;19.080;2023-05-21T04:59:25;100618.62;;;17.48;76.39
63654;BME280;49809;47.418;19.080;2023-05-21T05:22:16;100618.12;;;18.34;70.71
63654;BME280;49809;47.418;19.080;2023-05-21T05:52:14;100610.78;;;19.35;66.82
63654;BME280;49809;47.418;19.080;2023-05-21T05:55:45;100611.59;;;19.49;65.53
63654;BME280;49809;47.418;19.080;2023-05-21T06:06:44;100604.72;;;19.79;65.75
63654;BME280;49809;47.418;19.080;2023-05-21T06:10:26;100597.06;;;19.95;63.80
63654;BME280;49809;47.418;19.080;2023-05-21T06:43:01;100578.06;;;20.75;60.86
63654;BME280;49809;47.418;19.080;2023-05-21T06:46:44;100577.94;;;20.89;62.14
63654;BME280;49809;47.418;19.080;2023-05-21T06:54:11;100571.69;;;21.19;60.73
63654;BME280;49809;47.418;19.080;2023-05-21T06:57:48;100563.16;;;21.35;59.22
63654;BME280;49809;47.418;19.080;2023-05-21T07:01:45;100559.19;;;21.41;58.55
63654;BME280;49809;47.418;19.080;2023-05-21T07:09:51;100564.06;;;21.90;57.73
63654;BME280;49809;47.418;19.080;2023-05-21T07:13:28;100559.94;;;22.01;57.81
63654;BME280;49809;47.418;19.080;2023-05-21T07:21:11;100556.31;;;22.44;57.05
63654;BME280;49809;47.418;19.080;2023-05-21T07:24:41;100547.94;;;22.66;56.02
63654;BME280;49809;47.418;19.080;2023-05-21T07:27:53;100555.13;;;22.91;54.68
63654;BME280;49809;47.418;19.080;2023-05-21T07:35:14;100557.12;;;23.86;50.84
63654;BME280;49809;47.418;19.080;2023-05-21T07:38:50;100558.72;;;24.11;51.38
63654;BME280;49809;47.418;19.080;2023-05-21T07:46:28;100543.25;;;25.33;48.90
63654;BME280;49809;47.418;19.080;2023-05-21T07:58:41;100551.31;;;25.58;47.61
63654;BME280;49809;47.418;19.080;2023-05-21T08:02:06;100548.19;;;25.99;47.74
63654;BME280;49809;47.418;19.080;2023-05-21T08:13:00;100552.19;;;26.99;44.46
63654;BME280;49809;47.418;19.080;2023-05-21T09:01:40;100549.19;;;29.95;34.91
63654;BME280;49809;47.418;19.080;2023-05-21T09:05:47;100552.25;;;30.34;35.27
63654;BME280;49809;47.418;19.080;2023-05-21T09:17:23;100539.38;;;30.35;34.84
63654;BME280;49809;47.418;19.080;2023-05-21T09:20:55;100545.34;;;31.02;32.87
63654;BME280;49809;47.418;19.080;2023-05-21T09:24:39;100540.56;;;30.92;33.40
63654;BME280;49809;47.418;19.080;2023-05-21T09:28:34;100544.31;;;30.70;34.39
63654;BME280;49809;47.418;19.080;2023-05-21T09:32:16;100534.25;;;30.81;33.87
63654;BME280;49809;47.418;19.080;2023-05-21T09:35:47;100537.12;;;30.44;33.79
63654;BME280;49809;47.418;19.080;2023-05-21T09:39:28;100532.94;;;31.29;32.14
63654;BME280;49809;47.418;19.080;2023-05-21T09:43:12;100538.47;;;31.47;31.57
63654;BME280;49809;47.418;19.080;2023-05-21T09:46:41;100536.19;;;31.60;31.20
63654;BME280;49809;47.418;19.080;2023-05-21T09:50:18;100555.34;;;31.60;32.28
63654;BME280;49809;47.418;19.080;2023-05-21T09:54:05;100539.38;;;31.83;30.94
63654;BME280;49809;47.418;19.080;2023-05-21T11:18:58;100500.63;;;33.56;27.18
63654;BME280;49809;47.418;19.080;2023-05-21T11:27:38;100492.78;;;32.61;27.97
63654;BME280;49809;47.418;19.080;2023-05-21T11:39:18;100491.25;;;32.53;28.10
63654;BME280;49809;47.418;19.080;2023-05-21T11:42:48;100490.50;;;32.31;28.36
63654;BME280;49809;47.418;19.080;2023-05-21T11:46:27;100483.94;;;33.30;27.75
63654;BME280;49809;47.418;19.080;2023-05-21T11:50:26;100467.16;;;33.13;29.40
63654;BME280;49809;47.418;19.080;2023-05-21T11:53:53;100462.75;;;33.92;27.91
63654;BME280;49809;47.418;19.080;2023-05-21T11:57:45;100474.34;;;34.18;28.73
63654;BME280;49809;47.418;19.080;2023-05-21T12:01:23;100465.38;;;34.85;25.97
63654;BME280;49809;47.418;19.080;2023-05-21T12:04:55;100466.84;;;34.22;27.87
63654;BME280;49809;47.418;19.080;2023-05-21T12:08:24;100463.06;;;34.42;27.03
63654;BME280;49809;47.418;19.080;2023-05-21T12:12:15;100453.44;;;34.24;27.23
63654;BME280;49809;47.418;19.080;2023-05-21T12:16:09;100453.31;;;34.75;27.40
63654;BME280;49809;47.418;19.080;2023-05-21T12:19:31;100450.37;;;34.52;26.33
63654;BME280;49809;47.418;19.080;2023-05-21T12:22:52;100447.84;;;33.90;27.63
63654;BME280;49809;47.418;19.080;2023-05-21T12:26:31;100450.50;;;32.72;28.52
63654;BME280;49809;47.418;19.080;2023-05-21T12:30:10;100444.47;;;33.02;29.23
63654;BME280;49809;47.418;19.080;2023-05-21T12:33:52;100434.47;;;32.57;29.22
63654;BME280;49809;47.418;19.080;2023-05-21T12:37:48;100435.31;;;31.55;30.60
63654;BME280;49809;47.418;19.080;2023-05-21T12:45:29;100433.50;;;30.76;33.42
63654;BME280;49809;47.418;19.080;2023-05-21T12:56:26;100418.28;;;28.91;36.42
63654;BME280;49809;47.418;19.080;2023-05-21T12:59:50;100419.25;;;28.46;36.05
63654;BME280;49809;47.418;19.080;2023-05-21T13:11:16;100403.88;;;28.31;37.47
63654;BME280;49809;47.418;19.080;2023-05-21T13:14:58;100406.31;;;28.40;37.13
63654;BME280;49809;47.418;19.080;2023-05-21T13:18:23;100405.38;;;28.02;38.47
63654;BME280;49809;47.418;19.080;2023-05-21T13:21:47;100412.97;;;27.67;38.83
63654;BME280;49809;47.418;19.080;2023-05-21T13:25:21;100393.72;;;27.79;37.09
63654;BME280;49809;47.418;19.080;2023-05-21T13:28:59;100396.16;;;28.10;36.88
63654;BME280;49809;47.418;19.080;2023-05-21T13:32:54;100381.00;;;28.36;36.05
63654;BME280;49809;47.418;19.080;2023-05-21T13:40:06;100387.78;;;28.23;35.00
63654;BME280;49809;47.418;19.080;2023-05-21T13:43:33;100379.00;;;27.57;37.29
63654;BME280;49809;47.418;19.080;2023-05-21T13:47:14;100357.44;;;27.94;37.37
63654;BME280;49809;47.418;19.080;2023-05-21T13:50:49;100376.97;;;28.26;36.66
63654;BME280;49809;47.418;19.080;2023-05-21T13:54:38;100367.59;;;28.24;35.31
63654;BME280;49809;47.418;19.080;2023-05-21T14:23:57;100355.25;;;27.54;37.46
63654;BME280;49809;47.418;19.080;2023-05-21T14:27:21;100355.09;;;27.47;37.52
63654;BME280;49809;47.418;19.080;2023-05-21T14:34:48;100354.25;;;27.43;36.60
63654;BME280;49809;47.418;19.080;2023-05-21T14:38:26;100344.84;;;27.60;37.01
63654;BME280;49809;47.418;19.080;2023-05-21T14:42:34;100339.97;;;27.69;37.92
63654;BME280;49809;47.418;19.080;2023-05-21T18:50:15;100371.72;;;20.76;63.12
63654;BME280;49809;47.418;19.080;2023-05-21T18:54:02;100367.59;;;20.61;64.74
63654;BME280;49809;47.418;19.080;2023-05-21T18:57:38;100373.13;;;20.48;66.45
63654;BME280;49809;47.418;19.080;2023-05-21T19:01:14;100372.16;;;20.35;67.63
63654;BME280;49809;47.418;19.080;2023-05-21T19:04:53;100370.19;;;20.18;69.25
63654;BME280;49809;47.418;19.080;2023-05-21T19:08:32;100377.75;;;19.99;71.37
63654;BME280;49809;47.418;19.080;2023-05-21T19:12:10;100383.03;;;19.82;71.98
63654;BME280;49809;47.418;19.080;2023-05-21T19:15:38;100383.56;;;19.62;73.10
63654;BME280;49809;47.418;19.080;2023-05-21T19:23:43;100392.28;;;19.36;74.60
63654;BME280;49809;47.418;19.080;2023-05-21T19:27:59;100392.31;;;19.23;75.70
